sensor_id;sensor_type;location;lat;lon;timestamp;temperature;humidity
37240;DHT22;23130;48.760;9.178;2023-07-13T00:01:43;19.10;99.90
37240;DHT22;23130;48.760;9.178;2023-07-13T00:04:09;19.10;99.90
37240;DHT22;23130;48.760;9.178;2023-07-13T00:06:35;19.10;99.90
37240;DHT22;23130;48.760;9.178;2023-07-13T00:09:01;19.10;99.90
37240;DHT22;23130;48.760;9.178;2023-07-13T00:11:27;19.10;99.90
37240;DHT22;23130;48.760;9.178;2023-07-13T00:13:53;19.10;99.90
37240;DHT22;23130;48.760;9.178;2023-07-13T00:16:19;19.00;99.90
37240;DHT22;23130;48.760;9.178;2023-07-13T00:18:46;18.90;99.90
37240;DHT22;23130;48.760;9.178;2023-07-13T00:21:12;18.90;99.90
37240;DHT22;23130;48.760;9.178;2023-07-13T00:23:40;18.80;99.90
37240;DHT22;23130;48.760;9.178;2023-07-13T00:26:08;18.80;99.90
37240;DHT22;23130;48.760;9.178;2023-07-13T00:28:34;18.80;99.90
37240;DHT22;23130;48.760;9.178;2023-07-13T00:31:01;18.70;99.90
37240;DHT22;23130;48.760;9.178;2023-07-13T00:33:28;18.60;99.90
37240;DHT22;23130;48.760;9.178;2023-07-13T00:35:55;18.50;99.90
37240;DHT22;23130;48.760;9.178;2023-07-13T00:38:21;18.50;99.90
37240;DHT22;23130;48.760;9.178;2023-07-13T00:40:47;18.40;99.90
37240;DHT22;23130;48.760;9.178;2023-07-13T00:43:17;18.30;99.90
37240;DHT22;23130;48.760;9.178;2023-07-13T00:48:10;18.20;99.90
37240;DHT22;23130;48.760;9.178;2023-07-13T00:50:36;18.00;99.90
37240;DHT22;23130;48.760;9.178;2023-07-13T00:53:02;17.90;99.90
37240;DHT22;23130;48.760;9.178;2023-07-13T00:55:28;17.90;99.90
37240;DHT22;23130;48.760;9.178;2023-07-13T00:57:54;17.80;99.90
37240;DHT22;23130;48.760;9.178;2023-07-13T01:00:22;17.70;99.90
37240;DHT22;23130;48.760;9.178;2023-07-13T01:02:48;17.60;99.90
37240;DHT22;23130;48.760;9.178;2023-07-13T01:05:21;17.60;99.90
37240;DHT22;23130;48.760;9.178;2023-07-13T01:07:49;17.60;99.90
37240;DHT22;23130;48.760;9.178;2023-07-13T01:10:16;17.60;99.90
37240;DHT22;23130;48.760;9.178;2023-07-13T01:12:43;17.60;99.90
37240;DHT22;23130;48.760;9.178;2023-07-13T01:18:00;17.50;99.90
37240;DHT22;23130;48.760;9.178;2023-07-13T01:20:26;17.40;99.90
37240;DHT22;23130;48.760;9.178;2023-07-13T01:22:51;17.40;99.90
37240;DHT22;23130;48.760;9.178;2023-07-13T01:25:18;17.40;99.90
37240;DHT22;23130;48.760;9.178;2023-07-13T01:27:44;17.40;99.90
37240;DHT22;23130;48.760;9.178;2023-07-13T01:30:10;17.30;99.90
37240;DHT22;23130;48.760;9.178;2023-07-13T01:32:36;17.20;99.90
37240;DHT22;23130;48.760;9.178;2023-07-13T01:35:03;17.10;99.90
37240;DHT22;23130;48.760;9.178;2023-07-13T01:37:29;17.00;99.90
37240;DHT22;23130;48.760;9.178;2023-07-13T01:39:59;16.90;99.90
37240;DHT22;23130;48.760;9.178;2023-07-13T01:42:28;16.90;99.90
37240;DHT22;23130;48.760;9.178;2023-07-13T01:44:53;16.90;99.90
37240;DHT22;23130;48.760;9.178;2023-07-13T01:47:19;16.80;99.90
37240;DHT22;23130;48.760;9.178;2023-07-13T01:49:44;16.80;99.90
37240;DHT22;23130;48.760;9.178;2023-07-13T01:52:12;16.90;99.90
37240;DHT22;23130;48.760;9.178;2023-07-13T01:54:38;16.80;99.90
37240;DHT22;23130;48.760;9.178;2023-07-13T01:57:03;16.70;99.90
37240;DHT22;23130;48.760;9.178;2023-07-13T01:59:29;16.60;99.90
37240;DHT22;23130;48.760;9.178;2023-07-13T02:01:55;16.60;99.90
37240;DHT22;23130;48.760;9.178;2023-07-13T02:04:20;16.50;99.90
37240;DHT22;23130;48.760;9.178;2023-07-13T02:06:46;16.40;99.90
37240;DHT22;23130;48.760;9.178;2023-07-13T02:09:11;16.40;99.90
37240;DHT22;23130;48.760;9.178;2023-07-13T02:11:37;16.30;99.90
37240;DHT22;23130;48.760;9.178;2023-07-13T02:14:02;16.40;99.90
37240;DHT22;23130;48.760;9.178;2023-07-13T02:16:29;16.40;99.90
37240;DHT22;23130;48.760;9.178;2023-07-13T02:18:55;16.40;99.90
37240;DHT22;23130;48.760;9.178;2023-07-13T02:24:43;16.30;99.90
37240;DHT22;23130;48.760;9.178;2023-07-13T02:27:08;16.20;99.90
37240;DHT22;23130;48.760;9.178;2023-07-13T02:29:34;16.10;99.90
37240;DHT22;23130;48.760;9.178;2023-07-13T02:31:59;16.10;99.90
37240;DHT22;23130;48.760;9.178;2023-07-13T02:34:25;16.10;99.90
37240;DHT22;23130;48.760;9.178;2023-07-13T02:36:50;16.10;99.90
37240;DHT22;23130;48.760;9.178;2023-07-13T02:39:16;16.00;99.90
37240;DHT22;23130;48.760;9.178;2023-07-13T02:41:42;16.10;99.90
37240;DHT22;23130;48.760;9.178;2023-07-13T02:44:08;16.10;99.90
37240;DHT22;23130;48.760;9.178;2023-07-13T02:46:36;16.00;99.90
37240;DHT22;23130;48.760;9.178;2023-07-13T02:49:03;16.00;99.90
37240;DHT22;23130;48.760;9.178;2023-07-13T02:51:29;15.90;99.90
37240;DHT22;23130;48.760;9.178;2023-07-13T02:53:55;15.70;99.90
37240;DHT22;23130;48.760;9.178;2023-07-13T02:56:25;15.60;99.90
37240;DHT22;23130;48.760;9.178;2023-07-13T02:58:51;15.50;99.90
37240;DHT22;23130;48.760;9.178;2023-07-13T03:01:17;15.50;99.90
37240;DHT22;23130;48.760;9.178;2023-07-13T03:03:45;15.40;99.90
37240;DHT22;23130;48.760;9.178;2023-07-13T03:06:11;15.40;99.90
37240;DHT22;23130;48.760;9.178;2023-07-13T03:08:37;15.40;99.90
37240;DHT22;23130;48.760;9.178;2023-07-13T03:11:06;15.40;99.90
37240;DHT22;23130;48.760;9.178;2023-07-13T03:13:32;15.40;99.90
37240;DHT22;23130;48.760;9.178;2023-07-13T03:15:58;15.40;99.90
37240;DHT22;23130;48.760;9.178;2023-07-13T03:18:26;15.40;99.90
37240;DHT22;23130;48.760;9.178;2023-07-13T03:20:52;15.40;99.90
37240;DHT22;23130;48.760;9.178;2023-07-13T03:23:18;15.40;99.90
37240;DHT22;23130;48.760;9.178;2023-07-13T03:25:44;15.50;99.90
37240;DHT22;23130;48.760;9.178;2023-07-13T03:28:11;15.60;99.90
37240;DHT22;23130;48.760;9.178;2023-07-13T03:30:37;15.70;99.90
37240;DHT22;23130;48.760;9.178;2023-07-13T03:33:02;15.80;99.90
37240;DHT22;23130;48.760;9.178;2023-07-13T03:35:28;15.90;99.90
37240;DHT22;23130;48.760;9.178;2023-07-13T03:37:54;16.00;99.90
37240;DHT22;23130;48.760;9.178;2023-07-13T03:40:19;16.10;99.90
37240;DHT22;23130;48.760;9.178;2023-07-13T03:42:45;16.20;99.90
37240;DHT22;23130;48.760;9.178;2023-07-13T03:45:11;16.30;99.90
37240;DHT22;23130;48.760;9.178;2023-07-13T03:47:36;16.40;99.90
37240;DHT22;23130;48.760;9.178;2023-07-13T03:50:02;16.50;99.90
37240;DHT22;23130;48.760;9.178;2023-07-13T03:52:28;16.60;99.90
37240;DHT22;23130;48.760;9.178;2023-07-13T03:54:54;16.70;99.90
37240;DHT22;23130;48.760;9.178;2023-07-13T03:57:20;16.80;99.90
37240;DHT22;23130;48.760;9.178;2023-07-13T03:59:45;16.90;99.90
37240;DHT22;23130;48.760;9.178;2023-07-13T04:02:11;17.00;99.90
37240;DHT22;23130;48.760;9.178;2023-07-13T04:04:37;17.00;99.90
37240;DHT22;23130;48.760;9.178;2023-07-13T04:07:05;17.10;99.90
37240;DHT22;23130;48.760;9.178;2023-07-13T04:09:31;17.20;99.90
37240;DHT22;23130;48.760;9.178;2023-07-13T04:11:56;17.20;99.90
37240;DHT22;23130;48.760;9.178;2023-07-13T04:14:22;17.20;99.90
37240;DHT22;23130;48.760;9.178;2023-07-13T04:16:47;17.20;99.90
37240;DHT22;23130;48.760;9.178;2023-07-13T04:19:13;17.20;99.90
37240;DHT22;23130;48.760;9.178;2023-07-13T04:21:38;17.20;99.90
37240;DHT22;23130;48.760;9.178;2023-07-13T04:24:04;17.30;99.90
37240;DHT22;23130;48.760;9.178;2023-07-13T04:26:30;17.40;99.90
37240;DHT22;23130;48.760;9.178;2023-07-13T04:28:56;17.40;99.90
37240;DHT22;23130;48.760;9.178;2023-07-13T04:31:22;17.50;99.90
37240;DHT22;23130;48.760;9.178;2023-07-13T04:33:49;17.60;99.90
37240;DHT22;23130;48.760;9.178;2023-07-13T04:36:16;17.60;99.90
37240;DHT22;23130;48.760;9.178;2023-07-13T04:38:42;17.60;99.90
37240;DHT22;23130;48.760;9.178;2023-07-13T04:41:08;17.60;99.90
37240;DHT22;23130;48.760;9.178;2023-07-13T04:43:34;17.60;99.90
37240;DHT22;23130;48.760;9.178;2023-07-13T04:46:14;17.50;99.90
37240;DHT22;23130;48.760;9.178;2023-07-13T04:48:41;17.50;99.90
37240;DHT22;23130;48.760;9.178;2023-07-13T04:51:06;17.30;99.90
37240;DHT22;23130;48.760;9.178;2023-07-13T04:53:33;17.30;99.90
37240;DHT22;23130;48.760;9.178;2023-07-13T04:55:59;17.20;99.90
37240;DHT22;23130;48.760;9.178;2023-07-13T04:58:25;17.30;99.90
37240;DHT22;23130;48.760;9.178;2023-07-13T05:00:51;17.30;99.90
37240;DHT22;23130;48.760;9.178;2023-07-13T05:03:17;17.50;99.90
37240;DHT22;23130;48.760;9.178;2023-07-13T05:05:43;17.60;99.90
37240;DHT22;23130;48.760;9.178;2023-07-13T05:08:08;17.80;99.90
37240;DHT22;23130;48.760;9.178;2023-07-13T05:10:35;17.90;99.90
37240;DHT22;23130;48.760;9.178;2023-07-13T05:13:01;18.20;99.90
37240;DHT22;23130;48.760;9.178;2023-07-13T05:15:27;18.40;99.90
37240;DHT22;23130;48.760;9.178;2023-07-13T05:17:52;18.80;99.90
37240;DHT22;23130;48.760;9.178;2023-07-13T05:20:19;19.10;99.90
37240;DHT22;23130;48.760;9.178;2023-07-13T05:22:45;19.30;99.90
37240;DHT22;23130;48.760;9.178;2023-07-13T05:25:12;19.50;99.90
37240;DHT22;23130;48.760;9.178;2023-07-13T05:27:38;19.80;99.90
37240;DHT22;23130;48.760;9.178;2023-07-13T05:30:05;19.90;99.90
37240;DHT22;23130;48.760;9.178;2023-07-13T05:32:30;20.10;99.90
37240;DHT22;23130;48.760;9.178;2023-07-13T05:34:56;20.30;99.90
37240;DHT22;23130;48.760;9.178;2023-07-13T05:37:22;20.40;99.90
37240;DHT22;23130;48.760;9.178;2023-07-13T05:39:48;20.70;99.90
37240;DHT22;23130;48.760;9.178;2023-07-13T05:42:13;20.80;99.90
37240;DHT22;23130;48.760;9.178;2023-07-13T05:44:39;20.90;99.90
37240;DHT22;23130;48.760;9.178;2023-07-13T05:47:05;21.00;99.90
37240;DHT22;23130;48.760;9.178;2023-07-13T05:49:31;20.80;99.90
37240;DHT22;23130;48.760;9.178;2023-07-13T05:51:57;20.70;99.90
37240;DHT22;23130;48.760;9.178;2023-07-13T05:54:22;20.50;99.90
37240;DHT22;23130;48.760;9.178;2023-07-13T05:56:48;20.30;99.90
37240;DHT22;23130;48.760;9.178;2023-07-13T05:59:13;20.30;99.90
37240;DHT22;23130;48.760;9.178;2023-07-13T06:01:39;20.20;99.90
37240;DHT22;23130;48.760;9.178;2023-07-13T06:04:07;20.40;99.90
37240;DHT22;23130;48.760;9.178;2023-07-13T06:06:33;20.50;99.90
37240;DHT22;23130;48.760;9.178;2023-07-13T06:08:58;20.80;99.90
37240;DHT22;23130;48.760;9.178;2023-07-13T06:11:25;21.10;99.90
37240;DHT22;23130;48.760;9.178;2023-07-13T06:13:51;21.80;99.90
37240;DHT22;23130;48.760;9.178;2023-07-13T06:16:17;22.90;99.90
37240;DHT22;23130;48.760;9.178;2023-07-13T06:18:43;24.70;99.60
37240;DHT22;23130;48.760;9.178;2023-07-13T06:21:11;26.20;96.90
37240;DHT22;23130;48.760;9.178;2023-07-13T06:23:37;27.30;94.70
37240;DHT22;23130;48.760;9.178;2023-07-13T06:26:04;27.60;94.40
37240;DHT22;23130;48.760;9.178;2023-07-13T06:28:30;28.40;92.80
37240;DHT22;23130;48.760;9.178;2023-07-13T06:30:57;28.90;91.20
37240;DHT22;23130;48.760;9.178;2023-07-13T06:33:27;28.80;90.00
37240;DHT22;23130;48.760;9.178;2023-07-13T06:35:52;29.70;88.10
37240;DHT22;23130;48.760;9.178;2023-07-13T06:38:20;30.20;86.10
37240;DHT22;23130;48.760;9.178;2023-07-13T06:40:45;30.90;84.80
37240;DHT22;23130;48.760;9.178;2023-07-13T06:43:11;30.70;84.00
37240;DHT22;23130;48.760;9.178;2023-07-13T06:45:43;30.50;83.70
37240;DHT22;23130;48.760;9.178;2023-07-13T06:48:11;31.30;83.00
37240;DHT22;23130;48.760;9.178;2023-07-13T06:50:36;32.00;81.20
37240;DHT22;23130;48.760;9.178;2023-07-13T06:53:02;31.80;78.30
37240;DHT22;23130;48.760;9.178;2023-07-13T06:55:30;31.20;78.30
37240;DHT22;23130;48.760;9.178;2023-07-13T06:57:56;30.50;77.20
37240;DHT22;23130;48.760;9.178;2023-07-13T07:00:23;30.60;79.20
37240;DHT22;23130;48.760;9.178;2023-07-13T07:02:49;30.70;79.30
37240;DHT22;23130;48.760;9.178;2023-07-13T07:05:14;31.40;77.40
37240;DHT22;23130;48.760;9.178;2023-07-13T07:07:40;31.00;77.00
37240;DHT22;23130;48.760;9.178;2023-07-13T07:10:06;31.60;77.30
37240;DHT22;23130;48.760;9.178;2023-07-13T07:12:32;31.90;74.10
37240;DHT22;23130;48.760;9.178;2023-07-13T07:15:00;31.90;73.30
37240;DHT22;23130;48.760;9.178;2023-07-13T07:17:26;31.50;73.00
37240;DHT22;23130;48.760;9.178;2023-07-13T07:19:52;31.00;73.40
37240;DHT22;23130;48.760;9.178;2023-07-13T07:22:22;30.80;72.80
37240;DHT22;23130;48.760;9.178;2023-07-13T07:24:47;30.60;72.30
37240;DHT22;23130;48.760;9.178;2023-07-13T07:27:13;30.40;71.40
37240;DHT22;23130;48.760;9.178;2023-07-13T07:29:38;30.40;73.10
37240;DHT22;23130;48.760;9.178;2023-07-13T07:32:04;30.80;71.50
37240;DHT22;23130;48.760;9.178;2023-07-13T07:34:30;30.40;71.70
37240;DHT22;23130;48.760;9.178;2023-07-13T07:37:00;30.60;71.10
37240;DHT22;23130;48.760;9.178;2023-07-13T07:39:29;30.10;72.20
37240;DHT22;23130;48.760;9.178;2023-07-13T07:41:54;30.20;71.10
37240;DHT22;23130;48.760;9.178;2023-07-13T07:44:20;30.30;72.70
37240;DHT22;23130;48.760;9.178;2023-07-13T07:46:46;30.70;72.90
37240;DHT22;23130;48.760;9.178;2023-07-13T07:49:12;31.40;73.50
37240;DHT22;23130;48.760;9.178;2023-07-13T07:51:38;30.80;71.10
37240;DHT22;23130;48.760;9.178;2023-07-13T07:54:04;31.40;70.60
37240;DHT22;23130;48.760;9.178;2023-07-13T07:56:30;31.50;70.50
37240;DHT22;23130;48.760;9.178;2023-07-13T07:58:56;31.50;70.30
37240;DHT22;23130;48.760;9.178;2023-07-13T08:01:22;31.00;69.10
37240;DHT22;23130;48.760;9.178;2023-07-13T08:03:48;30.60;68.60
37240;DHT22;23130;48.760;9.178;2023-07-13T08:06:13;30.80;68.10
37240;DHT22;23130;48.760;9.178;2023-07-13T08:08:39;31.10;68.10
37240;DHT22;23130;48.760;9.178;2023-07-13T08:11:07;30.80;69.30
37240;DHT22;23130;48.760;9.178;2023-07-13T08:13:33;31.20;67.70
37240;DHT22;23130;48.760;9.178;2023-07-13T08:15:59;31.00;67.20
37240;DHT22;23130;48.760;9.178;2023-07-13T08:18:25;30.70;67.40
37240;DHT22;23130;48.760;9.178;2023-07-13T08:20:51;30.10;68.30
37240;DHT22;23130;48.760;9.178;2023-07-13T08:23:17;29.60;68.90
37240;DHT22;23130;48.760;9.178;2023-07-13T08:25:52;29.40;69.80
37240;DHT22;23130;48.760;9.178;2023-07-13T08:28:19;29.20;69.80
37240;DHT22;23130;48.760;9.178;2023-07-13T08:30:45;28.90;70.40
37240;DHT22;23130;48.760;9.178;2023-07-13T08:33:14;28.50;72.20
37240;DHT22;23130;48.760;9.178;2023-07-13T08:35:40;28.70;71.50
37240;DHT22;23130;48.760;9.178;2023-07-13T08:38:06;29.10;71.30
37240;DHT22;23130;48.760;9.178;2023-07-13T08:40:34;28.50;71.60
37240;DHT22;23130;48.760;9.178;2023-07-13T08:43:00;27.80;72.30
37240;DHT22;23130;48.760;9.178;2023-07-13T08:45:43;26.90;73.30
37240;DHT22;23130;48.760;9.178;2023-07-13T08:48:18;26.30;74.60
37240;DHT22;23130;48.760;9.178;2023-07-13T08:50:58;25.60;75.50
37240;DHT22;23130;48.760;9.178;2023-07-13T08:53:33;25.20;75.60
37240;DHT22;23130;48.760;9.178;2023-07-13T08:56:00;25.20;79.10
37240;DHT22;23130;48.760;9.178;2023-07-13T08:58:27;25.50;78.70
37240;DHT22;23130;48.760;9.178;2023-07-13T09:01:23;25.90;80.00
37240;DHT22;23130;48.760;9.178;2023-07-13T09:07:20;26.50;77.00
37240;DHT22;23130;48.760;9.178;2023-07-13T09:12:11;26.20;77.50
37240;DHT22;23130;48.760;9.178;2023-07-13T09:14:47;26.00;77.20
37240;DHT22;23130;48.760;9.178;2023-07-13T09:17:27;26.10;77.80
37240;DHT22;23130;48.760;9.178;2023-07-13T09:20:00;25.90;77.00
37240;DHT22;23130;48.760;9.178;2023-07-13T09:22:32;25.40;76.90
37240;DHT22;23130;48.760;9.178;2023-07-13T09:25:28;24.90;79.10
37240;DHT22;23130;48.760;9.178;2023-07-13T09:27:53;25.00;79.10
37240;DHT22;23130;48.760;9.178;2023-07-13T09:30:28;25.30;79.50
37240;DHT22;23130;48.760;9.178;2023-07-13T09:32:55;25.60;78.50
37240;DHT22;23130;48.760;9.178;2023-07-13T09:35:26;26.10;77.60
37240;DHT22;23130;48.760;9.178;2023-07-13T09:37:58;26.30;77.60
37240;DHT22;23130;48.760;9.178;2023-07-13T09:40:39;26.10;76.60
37240;DHT22;23130;48.760;9.178;2023-07-13T09:43:10;25.80;77.70
37240;DHT22;23130;48.760;9.178;2023-07-13T09:45:36;25.40;77.60
37240;DHT22;23130;48.760;9.178;2023-07-13T09:48:20;25.10;77.00
37240;DHT22;23130;48.760;9.178;2023-07-13T09:50:46;24.70;77.80
37240;DHT22;23130;48.760;9.178;2023-07-13T09:53:17;24.50;78.80
37240;DHT22;23130;48.760;9.178;2023-07-13T09:55:45;24.70;79.70
37240;DHT22;23130;48.760;9.178;2023-07-13T09:58:18;25.20;77.10
37240;DHT22;23130;48.760;9.178;2023-07-13T10:00:58;25.40;77.80
37240;DHT22;23130;48.760;9.178;2023-07-13T10:03:27;25.80;77.80
37240;DHT22;23130;48.760;9.178;2023-07-13T10:05:53;26.10;77.10
37240;DHT22;23130;48.760;9.178;2023-07-13T10:08:30;26.20;76.40
37240;DHT22;23130;48.760;9.178;2023-07-13T10:10:59;25.90;76.80
37240;DHT22;23130;48.760;9.178;2023-07-13T10:13:30;25.50;76.40
37240;DHT22;23130;48.760;9.178;2023-07-13T10:15:58;25.40;77.40
37240;DHT22;23130;48.760;9.178;2023-07-13T10:18:24;25.60;77.80
37240;DHT22;23130;48.760;9.178;2023-07-13T10:21:09;25.90;77.00
37240;DHT22;23130;48.760;9.178;2023-07-13T10:23:36;26.20;75.90
37240;DHT22;23130;48.760;9.178;2023-07-13T10:26:02;26.60;75.70
37240;DHT22;23130;48.760;9.178;2023-07-13T10:28:36;27.00;76.00
37240;DHT22;23130;48.760;9.178;2023-07-13T10:31:05;27.30;75.00
37240;DHT22;23130;48.760;9.178;2023-07-13T10:33:35;27.40;74.50
37240;DHT22;23130;48.760;9.178;2023-07-13T10:38:43;27.70;74.10
37240;DHT22;23130;48.760;9.178;2023-07-13T10:41:16;27.80;73.30
37240;DHT22;23130;48.760;9.178;2023-07-13T10:43:48;27.70;77.00
37240;DHT22;23130;48.760;9.178;2023-07-13T10:46:18;28.10;76.10
37240;DHT22;23130;48.760;9.178;2023-07-13T10:48:48;28.20;76.00
37240;DHT22;23130;48.760;9.178;2023-07-13T10:51:19;28.20;72.70
37240;DHT22;23130;48.760;9.178;2023-07-13T10:53:47;28.00;72.30
37240;DHT22;23130;48.760;9.178;2023-07-13T10:56:29;27.70;72.60
37240;DHT22;23130;48.760;9.178;2023-07-13T10:59:09;27.40;73.90
37240;DHT22;23130;48.760;9.178;2023-07-13T11:04:38;27.60;74.60
37240;DHT22;23130;48.760;9.178;2023-07-13T11:07:16;28.10;74.90
37240;DHT22;23130;48.760;9.178;2023-07-13T11:09:43;28.00;73.00
37240;DHT22;23130;48.760;9.178;2023-07-13T11:15:00;27.80;72.60
37240;DHT22;23130;48.760;9.178;2023-07-13T11:17:47;28.00;73.60
37240;DHT22;23130;48.760;9.178;2023-07-13T11:25:32;26.90;74.30
37240;DHT22;23130;48.760;9.178;2023-07-13T11:33:16;26.10;75.70
37240;DHT22;23130;48.760;9.178;2023-07-13T11:38:54;25.80;76.50
37240;DHT22;23130;48.760;9.178;2023-07-13T11:41:27;25.80;79.00
37240;DHT22;23130;48.760;9.178;2023-07-13T11:43:55;26.00;75.90
37240;DHT22;23130;48.760;9.178;2023-07-13T11:46:27;26.10;75.80
37240;DHT22;23130;48.760;9.178;2023-07-13T11:48:54;26.40;76.00
37240;DHT22;23130;48.760;9.178;2023-07-13T11:51:29;26.60;76.80
37240;DHT22;23130;48.760;9.178;2023-07-13T11:54:03;26.60;75.20
37240;DHT22;23130;48.760;9.178;2023-07-13T11:56:30;26.40;75.30
37240;DHT22;23130;48.760;9.178;2023-07-13T11:58:59;26.50;76.20
37240;DHT22;23130;48.760;9.178;2023-07-13T12:01:31;26.90;76.40
37240;DHT22;23130;48.760;9.178;2023-07-13T12:04:02;27.20;74.70
37240;DHT22;23130;48.760;9.178;2023-07-13T12:06:33;27.10;74.70
37240;DHT22;23130;48.760;9.178;2023-07-13T12:09:03;26.70;75.30
37240;DHT22;23130;48.760;9.178;2023-07-13T12:11:40;26.80;74.60
37240;DHT22;23130;48.760;9.178;2023-07-13T12:14:05;26.90;75.20
37240;DHT22;23130;48.760;9.178;2023-07-13T12:16:33;26.70;74.30
37240;DHT22;23130;48.760;9.178;2023-07-13T12:19:02;26.90;76.20
37240;DHT22;23130;48.760;9.178;2023-07-13T12:21:38;27.30;74.70
37240;DHT22;23130;48.760;9.178;2023-07-13T12:24:14;27.40;73.40
37240;DHT22;23130;48.760;9.178;2023-07-13T12:26:40;27.60;75.20
37240;DHT22;23130;48.760;9.178;2023-07-13T12:29:06;27.70;73.40
37240;DHT22;23130;48.760;9.178;2023-07-13T12:31:35;28.00;72.80
37240;DHT22;23130;48.760;9.178;2023-07-13T12:34:10;28.30;74.00
37240;DHT22;23130;48.760;9.178;2023-07-13T12:37:00;28.00;71.20
37240;DHT22;23130;48.760;9.178;2023-07-13T12:42:25;27.50;71.90
37240;DHT22;23130;48.760;9.178;2023-07-13T12:45:02;27.00;71.90
37240;DHT22;23130;48.760;9.178;2023-07-13T12:47:30;26.40;72.90
37240;DHT22;23130;48.760;9.178;2023-07-13T12:49:58;26.50;73.30
37240;DHT22;23130;48.760;9.178;2023-07-13T12:52:30;26.70;73.90
37240;DHT22;23130;48.760;9.178;2023-07-13T12:55:19;27.10;73.30
37240;DHT22;23130;48.760;9.178;2023-07-13T12:57:57;27.40;74.20
37240;DHT22;23130;48.760;9.178;2023-07-13T13:00:30;27.70;72.00
37240;DHT22;23130;48.760;9.178;2023-07-13T13:03:02;27.70;72.60
37240;DHT22;23130;48.760;9.178;2023-07-13T13:05:30;27.80;71.80
37240;DHT22;23130;48.760;9.178;2023-07-13T13:07:57;27.70;71.90
37240;DHT22;23130;48.760;9.178;2023-07-13T13:10:23;27.60;71.90
37240;DHT22;23130;48.760;9.178;2023-07-13T13:12:49;27.40;71.40
37240;DHT22;23130;48.760;9.178;2023-07-13T13:15:15;27.10;73.00
37240;DHT22;23130;48.760;9.178;2023-07-13T13:17:41;27.20;72.10
37240;DHT22;23130;48.760;9.178;2023-07-13T13:20:21;27.20;72.50
37240;DHT22;23130;48.760;9.178;2023-07-13T13:22:47;27.00;71.60
37240;DHT22;23130;48.760;9.178;2023-07-13T13:25:14;27.20;72.10
37240;DHT22;23130;48.760;9.178;2023-07-13T13:27:44;27.40;74.00
37240;DHT22;23130;48.760;9.178;2023-07-13T13:30:15;27.60;71.70
37240;DHT22;23130;48.760;9.178;2023-07-13T13:32:43;27.50;71.60
37240;DHT22;23130;48.760;9.178;2023-07-13T13:35:16;27.40;71.00
37240;DHT22;23130;48.760;9.178;2023-07-13T13:37:43;27.40;72.10
37240;DHT22;23130;48.760;9.178;2023-07-13T13:40:18;27.60;72.00
37240;DHT22;23130;48.760;9.178;2023-07-13T13:42:47;27.50;70.10
37240;DHT22;23130;48.760;9.178;2023-07-13T13:45:13;27.50;70.80
37240;DHT22;23130;48.760;9.178;2023-07-13T13:47:39;27.50;71.30
37240;DHT22;23130;48.760;9.178;2023-07-13T13:50:15;27.50;71.90
37240;DHT22;23130;48.760;9.178;2023-07-13T13:52:42;27.00;71.10
37240;DHT22;23130;48.760;9.178;2023-07-13T13:55:19;26.70;71.50
37240;DHT22;23130;48.760;9.178;2023-07-13T13:57:45;26.40;71.80
37240;DHT22;23130;48.760;9.178;2023-07-13T14:00:12;26.50;71.40
37240;DHT22;23130;48.760;9.178;2023-07-13T14:02:41;26.40;72.20
37240;DHT22;23130;48.760;9.178;2023-07-13T14:05:12;26.60;71.00
37240;DHT22;23130;48.760;9.178;2023-07-13T14:07:38;26.90;70.60
37240;DHT22;23130;48.760;9.178;2023-07-13T14:10:16;26.90;71.50
37240;DHT22;23130;48.760;9.178;2023-07-13T14:12:44;26.80;71.40
37240;DHT22;23130;48.760;9.178;2023-07-13T14:15:29;27.00;71.50
37240;DHT22;23130;48.760;9.178;2023-07-13T14:17:58;26.90;72.70
37240;DHT22;23130;48.760;9.178;2023-07-13T14:20:25;26.70;71.10
37240;DHT22;23130;48.760;9.178;2023-07-13T14:22:52;26.70;71.30
37240;DHT22;23130;48.760;9.178;2023-07-13T14:25:19;26.90;71.70
37240;DHT22;23130;48.760;9.178;2023-07-13T14:27:48;27.10;71.90
37240;DHT22;23130;48.760;9.178;2023-07-13T14:30:17;27.00;72.20
37240;DHT22;23130;48.760;9.178;2023-07-13T14:32:43;26.80;71.90
37240;DHT22;23130;48.760;9.178;2023-07-13T14:35:14;26.70;72.00
37240;DHT22;23130;48.760;9.178;2023-07-13T14:37:41;26.80;70.70
37240;DHT22;23130;48.760;9.178;2023-07-13T14:40:17;26.70;71.10
37240;DHT22;23130;48.760;9.178;2023-07-13T14:42:44;26.60;72.60
37240;DHT22;23130;48.760;9.178;2023-07-13T14:45:18;26.90;72.10
37240;DHT22;23130;48.760;9.178;2023-07-13T14:47:45;27.00;72.00
37240;DHT22;23130;48.760;9.178;2023-07-13T14:50:30;27.10;72.10
37240;DHT22;23130;48.760;9.178;2023-07-13T14:52:56;27.20;71.70
37240;DHT22;23130;48.760;9.178;2023-07-13T14:55:22;27.30;71.60
37240;DHT22;23130;48.760;9.178;2023-07-13T14:57:49;27.40;72.20
37240;DHT22;23130;48.760;9.178;2023-07-13T15:00:20;27.50;71.00
37240;DHT22;23130;48.760;9.178;2023-07-13T15:02:49;27.50;72.30
37240;DHT22;23130;48.760;9.178;2023-07-13T15:05:17;27.50;73.00
37240;DHT22;23130;48.760;9.178;2023-07-13T15:07:45;27.40;70.90
37240;DHT22;23130;48.760;9.178;2023-07-13T15:10:23;27.10;70.80
37240;DHT22;23130;48.760;9.178;2023-07-13T15:12:51;26.70;71.30
37240;DHT22;23130;48.760;9.178;2023-07-13T15:15:17;26.40;73.10
37240;DHT22;23130;48.760;9.178;2023-07-13T15:17:45;26.50;73.10
37240;DHT22;23130;48.760;9.178;2023-07-13T15:20:30;26.60;73.00
37240;DHT22;23130;48.760;9.178;2023-07-13T15:22:57;26.70;72.70
37240;DHT22;23130;48.760;9.178;2023-07-13T15:25:27;26.90;74.00
37240;DHT22;23130;48.760;9.178;2023-07-13T15:27:57;26.90;72.30
37240;DHT22;23130;48.760;9.178;2023-07-13T15:30:26;26.90;71.90
37240;DHT22;23130;48.760;9.178;2023-07-13T15:33:01;26.80;72.30
37240;DHT22;23130;48.760;9.178;2023-07-13T15:35:33;26.60;73.30
37240;DHT22;23130;48.760;9.178;2023-07-13T15:37:58;26.50;72.70
37240;DHT22;23130;48.760;9.178;2023-07-13T15:40:24;26.30;73.20
37240;DHT22;23130;48.760;9.178;2023-07-13T15:42:50;26.20;74.30
37240;DHT22;23130;48.760;9.178;2023-07-13T15:45:21;26.00;72.40
37240;DHT22;23130;48.760;9.178;2023-07-13T15:47:48;25.80;72.80
37240;DHT22;23130;48.760;9.178;2023-07-13T15:50:19;25.70;72.80
37240;DHT22;23130;48.760;9.178;2023-07-13T15:52:48;25.80;73.70
37240;DHT22;23130;48.760;9.178;2023-07-13T15:55:14;26.00;73.90
37240;DHT22;23130;48.760;9.178;2023-07-13T15:57:58;26.20;72.60
37240;DHT22;23130;48.760;9.178;2023-07-13T16:00:26;26.20;72.70
37240;DHT22;23130;48.760;9.178;2023-07-13T16:02:53;26.20;71.80
37240;DHT22;23130;48.760;9.178;2023-07-13T16:05:20;26.20;71.90
37240;DHT22;23130;48.760;9.178;2023-07-13T16:07:48;26.00;71.40
37240;DHT22;23130;48.760;9.178;2023-07-13T16:10:21;25.70;71.70
37240;DHT22;23130;48.760;9.178;2023-07-13T16:12:47;25.70;71.90
37240;DHT22;23130;48.760;9.178;2023-07-13T16:15:15;25.70;73.50
37240;DHT22;23130;48.760;9.178;2023-07-13T16:17:45;25.80;72.40